Time;durP1;ratioP1;P1;durP2;ratioP2;P2;SDS_P1;SDS_P2;PMS_P1;PMS_P2;Temp;Humidity;BMP_temperature;BMP_pressure;BME280_temperature;BME280_humidity;BME280_pressure;Samples;Min_cycle;Max_cycle;Signal;HPM_P1;HPM_P2
2022/08/04 00:00:21;;;;;;;3.53;1.80;;;25.40;96.80;;;;;;5012796;28;20022;-74
2022/08/04 00:03:14;;;;;;;4.65;2.20;;;25.50;96.90;;;;;;5042423;28;20106;-75
2022/08/04 00:05:55;;;;;;;2.83;2.28;;;25.50;96.80;;;;;;5012778;28;20052;-74
2022/08/04 00:08:37;;;;;;;2.83;2.20;;;25.50;96.80;;;;;;5037678;28;20017;-74
2022/08/04 00:11:06;;;;;;;3.30;2.08;;;25.40;96.80;;;;;;5050077;28;20448;-74
2022/08/04 00:13:41;;;;;;;2.15;2.03;;;25.40;96.80;;;;;;5042745;28;20111;-74
2022/08/04 00:16:09;;;;;;;4.20;2.30;;;25.40;96.70;;;;;;5049462;28;20491;-74
2022/08/04 00:18:44;;;;;;;3.65;2.65;;;25.40;96.80;;;;;;5041633;28;20029;-74
2022/08/04 00:21:12;;;;;;;2.47;2.28;;;25.40;97.00;;;;;;5049026;28;20027;-74
2022/08/04 00:23:41;;;;;;;2.33;2.13;;;25.40;96.80;;;;;;5036624;28;20025;-74
2022/08/04 00:26:08;;;;;;;4.82;1.90;;;25.30;96.90;;;;;;5031561;28;20550;-74
2022/08/04 00:28:36;;;;;;;3.20;2.30;;;25.30;97.00;;;;;;5042531;28;20025;-73
2022/08/04 00:31:02;;;;;;;2.03;1.67;;;25.30;97.20;;;;;;5049297;28;20602;-73
2022/08/04 00:33:29;;;;;;;4.43;2.03;;;25.20;97.20;;;;;;5044719;28;20025;-73
2022/08/04 00:35:56;;;;;;;5.32;2.38;;;25.20;97.20;;;;;;5032958;28;20025;-73
2022/08/04 00:38:23;;;;;;;2.40;2.20;;;25.10;97.30;;;;;;5039155;28;20098;-73
2022/08/04 00:41:12;;;;;;;2.00;1.80;;;25.10;97.50;;;;;;5050470;28;20555;-74
2022/08/04 00:43:51;;;;;;;2.40;2.20;;;25.10;97.20;;;;;;5026025;28;20053;-74
2022/08/04 00:46:34;;;;;;;2.20;1.90;;;25.10;97.40;;;;;;5048237;28;20022;-72
2022/08/04 00:49:25;;;;;;;2.80;2.35;;;25.10;97.20;;;;;;5042659;28;20483;-74
2022/08/04 00:52:28;;;;;;;1.73;1.63;;;25.10;97.00;;;;;;5043928;28;20049;-74
2022/08/04 00:55:11;;;;;;;2.38;1.92;;;25.10;96.70;;;;;;5022263;28;20045;-74
2022/08/04 00:57:57;;;;;;;4.45;1.80;;;25.10;96.80;;;;;;5036474;28;20136;-72
2022/08/04 01:00:24;;;;;;;3.20;2.40;;;25.10;96.20;;;;;;5011875;28;20049;-73
2022/08/04 01:03:09;;;;;;;3.13;2.17;;;25.20;96.60;;;;;;5042518;28;20021;-73
2022/08/04 01:05:40;;;;;;;2.25;1.98;;;25.20;96.20;;;;;;5031441;28;20070;-72
2022/08/04 01:08:17;;;;;;;2.25;2.08;;;25.20;96.10;;;;;;5037988;28;20026;-74
2022/08/04 01:11:23;;;;;;;4.82;2.00;;;25.20;96.10;;;;;;5050772;28;20017;-75
2022/08/04 01:14:24;;;;;;;2.97;1.98;;;25.20;95.90;;;;;;5037153;28;20048;-74
2022/08/04 01:17:00;;;;;;;3.83;2.22;;;25.20;95.80;;;;;;5036529;28;20024;-75
2022/08/04 01:19:35;;;;;;;2.47;1.77;;;25.20;95.90;;;;;;5044834;28;20021;-73
2022/08/04 01:22:12;;;;;;;2.17;1.98;;;25.20;95.80;;;;;;5045424;28;20025;-75
2022/08/04 01:24:59;;;;;;;5.25;2.15;;;25.20;95.80;;;;;;5046087;28;20028;-75
2022/08/04 01:27:49;;;;;;;2.30;2.10;;;25.20;95.90;;;;;;5038314;28;20053;-76
2022/08/04 01:30:15;;;;;;;3.05;1.92;;;25.20;95.60;;;;;;5011617;28;20236;-73
2022/08/04 01:32:55;;;;;;;3.08;2.20;;;25.20;95.50;;;;;;5039455;28;20025;-73
2022/08/04 01:35:37;;;;;;;5.47;2.15;;;25.10;95.50;;;;;;5010037;28;20030;-73
2022/08/04 01:38:09;;;;;;;2.65;2.10;;;25.20;95.50;;;;;;5038164;28;20042;-72
2022/08/04 01:40:36;;;;;;;3.45;2.00;;;25.20;95.20;;;;;;5051172;28;20035;-73
2022/08/04 01:43:03;;;;;;;2.00;1.85;;;25.20;95.10;;;;;;5038673;28;20037;-72
2022/08/04 01:45:30;;;;;;;2.75;2.22;;;25.20;94.60;;;;;;5049451;28;20499;-73
2022/08/04 01:47:56;;;;;;;3.75;2.00;;;25.20;94.60;;;;;;5038650;28;20084;-73
2022/08/04 01:50:23;;;;;;;3.97;2.00;;;25.30;94.40;;;;;;5051141;28;20032;-74
2022/08/04 01:52:52;;;;;;;2.05;1.92;;;25.30;94.40;;;;;;5035763;28;20124;-74
2022/08/04 01:55:18;;;;;;;3.08;2.10;;;25.40;94.40;;;;;;5050155;28;20056;-73
2022/08/04 01:57:49;;;;;;;2.28;2.08;;;25.30;94.00;;;;;;5036297;28;20025;-73
2022/08/04 02:00:33;;;;;;;1.98;1.88;;;25.40;93.90;;;;;;5011320;28;20022;-73
2022/08/04 02:02:58;;;;;;;4.40;1.90;;;25.40;94.00;;;;;;5044148;28;20032;-73
2022/08/04 02:05:26;;;;;;;2.50;1.98;;;25.40;93.90;;;;;;5030932;28;20507;-73
2022/08/04 02:08:22;;;;;;;5.30;2.28;;;25.40;94.10;;;;;;5036405;28;20053;-73
2022/08/04 02:10:57;;;;;;;2.42;1.90;;;25.40;94.00;;;;;;5049622;28;20536;-72
2022/08/04 02:14:05;;;;;;;4.00;2.20;;;25.40;94.10;;;;;;5037967;28;20087;-72
2022/08/04 02:16:52;;;;;;;2.40;2.20;;;25.40;94.00;;;;;;5043647;28;20038;-72
2022/08/04 02:19:26;;;;;;;4.43;1.88;;;25.40;94.10;;;;;;5036079;28;20143;-72
2022/08/04 02:22:00;;;;;;;2.72;2.10;;;25.30;94.10;;;;;;5049988;28;20075;-73
2022/08/04 02:24:29;;;;;;;2.28;2.08;;;25.30;94.30;;;;;;5046421;28;20144;-72
2022/08/04 02:26:55;;;;;;;1.90;1.80;;;25.30;94.30;;;;;;5041108;28;20034;-72
2022/08/04 02:29:34;;;;;;;2.53;1.88;;;25.30;94.10;;;;;;5041327;28;20032;-72
2022/08/04 02:32:04;;;;;;;2.17;1.90;;;25.30;94.10;;;;;;5041791;28;20032;-73
2022/08/04 02:34:49;;;;;;;4.80;1.90;;;25.20;94.10;;;;;;5039960;28;20084;-74
2022/08/04 02:37:16;;;;;;;2.28;2.00;;;25.20;94.10;;;;;;5039566;28;20022;-74
2022/08/04 02:39:43;;;;;;;3.13;2.17;;;25.20;93.90;;;;;;5049738;28;20077;-73
2022/08/04 02:42:11;;;;;;;2.28;2.08;;;25.30;93.80;;;;;;5046791;28;20032;-73
2022/08/04 02:44:38;;;;;;;4.55;2.20;;;25.30;93.90;;;;;;5049093;28;20079;-73
2022/08/04 02:47:06;;;;;;;2.15;1.95;;;25.30;93.90;;;;;;5047978;28;20067;-74
2022/08/04 02:49:36;;;;;;;3.53;2.00;;;25.20;94.20;;;;;;5048211;28;20026;-73
2022/08/04 02:52:03;;;;;;;2.22;1.95;;;25.20;94.10;;;;;;5047656;28;20040;-73
2022/08/04 02:54:36;;;;;;;5.63;2.00;;;25.20;94.10;;;;;;5047573;28;20028;-73
2022/08/04 02:57:07;;;;;;;2.30;2.10;;;25.20;93.80;;;;;;5044207;28;20044;-73
2022/08/04 02:59:44;;;;;;;2.38;2.08;;;25.30;94.00;;;;;;5033716;28;20030;-73
2022/08/04 03:02:10;;;;;;;2.47;2.20;;;25.20;94.00;;;;;;5042621;28;20399;-73
2022/08/04 03:04:51;;;;;;;5.03;1.90;;;25.20;94.10;;;;;;5038623;28;20025;-73
2022/08/04 03:07:34;;;;;;;2.47;2.08;;;25.20;94.00;;;;;;5038885;28;20033;-73
2022/08/04 03:10:24;;;;;;;4.45;2.10;;;25.10;94.30;;;;;;5051872;28;20017;-73
2022/08/04 03:12:53;;;;;;;2.53;1.83;;;25.10;94.40;;;;;;5045458;28;20058;-73
2022/08/04 03:15:40;;;;;;;3.63;2.55;;;25.00;94.50;;;;;;5032196;28;20354;-73
2022/08/04 03:18:21;;;;;;;2.03;1.90;;;25.00;94.40;;;;;;5041151;28;20579;-72
2022/08/04 03:21:08;;;;;;;3.38;2.20;;;25.00;94.20;;;;;;5052300;28;20025;-73
2022/08/04 03:24:09;;;;;;;2.22;2.03;;;25.00;94.10;;;;;;5043526;28;20033;-73
2022/08/04 03:26:56;;;;;;;6.43;2.55;;;25.00;94.40;;;;;;5046132;28;20029;-73
2022/08/04 03:29:34;;;;;;;2.30;2.10;;;25.00;94.30;;;;;;5039246;28;20032;-72
2022/08/04 03:32:11;;;;;;;2.30;1.83;;;25.00;94.20;;;;;;5048059;28;20182;-72
2022/08/04 03:34:59;;;;;;;3.45;2.30;;;25.00;94.40;;;;;;5037999;28;20069;-73
2022/08/04 03:37:32;;;;;;;4.95;2.42;;;25.00;94.50;;;;;;5036821;28;20048;-74
2022/08/04 03:40:39;;;;;;;2.33;1.88;;;25.00;94.50;;;;;;5050644;28;20025;-73
2022/08/04 03:43:16;;;;;;;2.20;1.90;;;25.00;94.60;;;;;;5034408;28;20616;-73
2022/08/04 03:45:51;;;;;;;1.90;1.80;;;25.00;94.60;;;;;;5051103;28;20120;-73
2022/08/04 03:48:29;;;;;;;2.00;1.90;;;25.00;94.70;;;;;;5041715;28;20032;-73
2022/08/04 03:54:35;;;;;;;3.10;2.10;;;24.90;94.80;;;;;;5037296;28;20266;-73
2022/08/04 03:57:35;;;;;;;3.03;1.83;;;24.90;94.70;;;;;;5043157;28;20075;-73
2022/08/04 04:00:06;;;;;;;2.90;2.22;;;24.90;95.00;;;;;;5050985;28;20445;-73
2022/08/04 04:02:40;;;;;;;2.40;2.20;;;24.80;95.30;;;;;;5049027;28;20025;-73
2022/08/04 04:05:37;;;;;;;2.50;2.30;;;24.80;95.30;;;;;;5033660;28;20048;-73
2022/08/04 04:08:24;;;;;;;5.60;1.90;;;24.70;95.10;;;;;;5039473;28;20064;-71
2022/08/04 04:11:11;;;;;;;3.95;2.60;;;24.70;95.00;;;;;;5051435;28;20029;-73
2022/08/04 04:13:55;;;;;;;3.50;2.42;;;24.70;95.00;;;;;;5042036;28;20179;-73
2022/08/04 04:17:04;;;;;;;2.50;2.30;;;24.70;95.30;;;;;;5048953;28;20091;-73
2022/08/04 04:19:41;;;;;;;3.33;2.03;;;24.70;95.40;;;;;;5038781;28;20040;-73
2022/08/04 04:22:28;;;;;;;2.22;2.03;;;24.70;95.50;;;;;;5045368;28;20439;-73
2022/08/04 04:25:11;;;;;;;2.05;1.88;;;24.60;95.80;;;;;;5049282;28;20033;-73
2022/08/04 04:27:49;;;;;;;3.05;2.38;;;24.60;95.70;;;;;;5036234;28;20107;-73
2022/08/04 04:30:41;;;;;;;3.45;2.38;;;24.60;95.40;;;;;;5012462;28;20566;-73
2022/08/04 04:33:13;;;;;;;3.90;2.22;;;24.70;95.40;;;;;;5044576;28;20045;-73
2022/08/04 04:36:29;;;;;;;6.50;2.15;;;24.70;95.50;;;;;;5031546;28;20014;-73
2022/08/04 04:39:33;;;;;;;2.10;1.90;;;24.80;95.40;;;;;;5023512;28;20629;-73
2022/08/04 04:42:19;;;;;;;3.08;2.28;;;24.80;95.80;;;;;;4988164;28;20570;-73
2022/08/04 04:44:45;;;;;;;2.38;1.90;;;24.90;96.20;;;;;;5008324;28;20061;-73
2022/08/04 04:47:29;;;;;;;3.13;2.25;;;24.90;96.20;;;;;;5003536;28;20058;-73
2022/08/04 04:50:13;;;;;;;6.03;2.42;;;24.90;96.20;;;;;;5009680;28;20072;-73
2022/08/04 04:52:57;;;;;;;2.92;2.13;;;25.00;95.90;;;;;;5005323;28;20129;-73
2022/08/04 04:55:39;;;;;;;4.38;1.98;;;25.00;96.00;;;;;;4974104;28;20509;-73
2022/08/04 04:58:11;;;;;;;2.55;2.20;;;25.00;96.00;;;;;;4999539;28;20030;-73
2022/08/04 05:00:45;;;;;;;3.58;2.08;;;25.10;95.40;;;;;;5011852;28;20030;-74
2022/08/04 05:03:38;;;;;;;2.80;2.47;;;25.20;95.30;;;;;;5004164;28;20030;-73
2022/08/04 05:06:16;;;;;;;3.67;2.30;;;25.30;95.00;;;;;;4991838;28;20101;-73
2022/08/04 05:09:05;;;;;;;3.08;2.50;;;25.30;95.10;;;;;;4996796;28;20031;-73
2022/08/04 05:11:37;;;;;;;4.65;1.95;;;25.40;94.90;;;;;;4995719;28;20037;-73
2022/08/04 05:14:08;;;;;;;3.13;2.20;;;25.40;94.90;;;;;;5003080;28;20065;-73
2022/08/04 05:16:48;;;;;;;5.28;2.60;;;25.50;94.80;;;;;;5008280;28;20081;-73
2022/08/04 05:19:40;;;;;;;4.80;2.20;;;25.60;94.70;;;;;;4995647;28;20570;-73
2022/08/04 05:22:12;;;;;;;7.03;2.63;;;25.60;94.70;;;;;;5005004;28;20045;-72
2022/08/04 05:24:42;;;;;;;2.30;2.10;;;25.60;94.70;;;;;;4995386;28;20308;-72
2022/08/04 05:27:33;;;;;;;3.08;2.15;;;25.70;94.40;;;;;;4997244;28;20042;-71
2022/08/04 05:30:03;;;;;;;2.60;2.03;;;25.80;94.00;;;;;;5009532;28;20022;-71
2022/08/04 05:32:36;;;;;;;2.53;2.20;;;25.90;93.50;;;;;;5006150;28;20041;-74
2022/08/04 05:35:10;;;;;;;6.22;2.50;;;25.90;93.10;;;;;;4993293;28;20038;-74
2022/08/04 05:37:39;;;;;;;4.20;2.40;;;26.10;93.30;;;;;;4999860;28;20022;-74
2022/08/04 05:40:07;;;;;;;2.20;2.00;;;26.10;93.00;;;;;;5049735;28;20028;-74
2022/08/04 05:42:36;;;;;;;3.55;2.17;;;26.20;93.00;;;;;;5040761;28;20033;-72
2022/08/04 05:45:04;;;;;;;2.33;2.03;;;26.30;92.70;;;;;;5049475;28;20079;-71
2022/08/04 05:47:31;;;;;;;5.00;2.40;;;26.40;92.60;;;;;;5041206;28;20030;-73
2022/08/04 05:49:58;;;;;;;3.75;2.45;;;26.50;92.50;;;;;;5048391;28;20594;-73
2022/08/04 05:52:24;;;;;;;3.90;2.17;;;26.50;92.10;;;;;;5041775;28;20044;-73
2022/08/04 05:54:51;;;;;;;4.93;2.17;;;26.50;92.40;;;;;;5049175;28;20059;-73
2022/08/04 05:57:18;;;;;;;2.35;2.15;;;26.60;91.80;;;;;;5043191;28;20025;-73
2022/08/04 05:59:47;;;;;;;2.53;2.10;;;26.70;92.10;;;;;;5050814;28;20112;-74
2022/08/04 06:02:16;;;;;;;3.20;2.10;;;26.70;92.00;;;;;;5043289;28;20060;-74
2022/08/04 06:04:45;;;;;;;2.95;2.10;;;26.70;92.10;;;;;;5050489;28;20021;-72
2022/08/04 06:07:13;;;;;;;6.47;2.30;;;26.80;92.20;;;;;;5047466;28;20411;-73
2022/08/04 06:09:42;;;;;;;3.10;2.17;;;26.80;92.20;;;;;;5049924;28;20406;-73
2022/08/04 06:12:18;;;;;;;4.05;2.05;;;26.80;92.00;;;;;;5047611;28;20025;-72
2022/08/04 06:14:46;;;;;;;12.15;2.55;;;26.90;92.00;;;;;;5045761;28;20036;-72
2022/08/04 06:17:18;;;;;;;4.30;2.03;;;26.90;91.90;;;;;;5045906;28;20022;-72
2022/08/04 06:19:44;;;;;;;2.72;2.20;;;27.00;91.90;;;;;;5050122;28;20021;-73
2022/08/04 06:22:12;;;;;;;5.93;2.40;;;27.00;91.50;;;;;;5047396;28;20101;-77
2022/08/04 06:24:40;;;;;;;4.93;2.00;;;27.10;91.60;;;;;;5048318;28;20379;-74
2022/08/04 06:27:07;;;;;;;1.85;1.75;;;27.10;91.40;;;;;;5044422;28;20029;-73
2022/08/04 06:29:37;;;;;;;1.95;1.80;;;27.20;91.10;;;;;;5048629;28;20028;-72
2022/08/04 06:34:54;;;;;;;2.25;2.00;;;27.30;91.20;;;;;;5037000;28;20032;-72
2022/08/04 06:37:22;;;;;;;2.90;2.20;;;27.40;91.10;;;;;;5037797;28;20805;-72
2022/08/04 06:39:49;;;;;;;6.05;2.40;;;27.40;91.20;;;;;;5050274;28;20048;-71
2022/08/04 06:42:17;;;;;;;5.43;2.08;;;27.50;91.30;;;;;;5046407;28;20032;-71
2022/08/04 06:44:45;;;;;;;2.17;1.88;;;27.50;91.50;;;;;;5049841;28;20061;-79
2022/08/04 06:47:11;;;;;;;5.43;2.08;;;27.60;90.50;;;;;;5046714;28;20021;-72
2022/08/04 06:49:39;;;;;;;2.28;1.88;;;27.60;90.30;;;;;;5048762;28;20058;-72
2022/08/04 06:52:05;;;;;;;5.50;2.55;;;27.70;90.70;;;;;;5046193;28;20025;-73
2022/08/04 06:54:32;;;;;;;4.00;2.10;;;27.70;91.00;;;;;;5047887;28;20029;-72
2022/08/04 06:57:00;;;;;;;3.08;2.00;;;27.80;90.30;;;;;;5044633;28;20021;-73
2022/08/04 06:59:27;;;;;;;3.45;2.00;;;27.90;89.90;;;;;;5047058;28;20475;-74
2022/08/04 07:01:54;;;;;;;3.58;2.30;;;28.00;90.10;;;;;;5050338;28;20115;-72
2022/08/04 07:04:20;;;;;;;3.80;1.77;;;28.00;89.70;;;;;;5040677;28;20021;-72
2022/08/04 07:06:46;;;;;;;3.20;1.80;;;28.10;89.90;;;;;;5038495;28;20032;-73
2022/08/04 07:09:12;;;;;;;3.47;1.92;;;28.10;90.00;;;;;;5043927;28;20071;-75
2022/08/04 07:11:38;;;;;;;3.60;2.00;;;28.10;90.20;;;;;;5048422;28;20080;-73
2022/08/04 07:14:04;;;;;;;5.07;1.95;;;28.20;90.00;;;;;;5042100;28;20040;-73
2022/08/04 07:16:30;;;;;;;1.92;1.75;;;28.30;89.10;;;;;;5037007;28;20030;-73
2022/08/04 07:18:56;;;;;;;3.70;1.88;;;28.40;89.30;;;;;;5040175;28;20029;-73
2022/08/04 07:21:22;;;;;;;5.05;1.80;;;28.40;88.50;;;;;;5035771;28;20078;-72
2022/08/04 07:23:49;;;;;;;2.20;2.03;;;28.50;89.00;;;;;;5044468;28;20111;-73
2022/08/04 07:26:17;;;;;;;3.22;2.00;;;28.50;88.80;;;;;;5044986;28;20025;-73
2022/08/04 07:28:44;;;;;;;3.42;1.85;;;28.50;88.30;;;;;;5044309;28;20228;-73
2022/08/04 07:31:14;;;;;;;3.28;1.85;;;28.60;88.70;;;;;;5049874;28;20025;-73
2022/08/04 07:33:42;;;;;;;2.33;1.60;;;28.70;89.40;;;;;;5039434;28;20026;-73
2022/08/04 07:36:08;;;;;;;3.70;2.00;;;28.80;88.80;;;;;;5034115;28;20024;-72
2022/08/04 07:38:34;;;;;;;2.00;1.90;;;28.80;88.20;;;;;;5043304;28;20049;-73
2022/08/04 07:41:02;;;;;;;3.47;1.70;;;28.80;87.50;;;;;;5051164;28;22140;-73
2022/08/04 07:43:30;;;;;;;2.45;1.80;;;28.90;87.60;;;;;;5041418;28;20558;-72
2022/08/04 07:45:55;;;;;;;2.03;1.58;;;28.90;86.50;;;;;;5051743;28;20033;-73
2022/08/04 07:48:23;;;;;;;3.20;2.20;;;28.90;85.50;;;;;;5039594;28;20445;-73
2022/08/04 07:50:49;;;;;;;4.93;2.65;;;29.10;87.10;;;;;;5050374;28;20379;-73
2022/08/04 07:53:16;;;;;;;6.80;2.45;;;29.10;87.40;;;;;;5040173;28;20037;-73
2022/08/04 07:55:44;;;;;;;3.90;2.03;;;29.20;87.40;;;;;;5047329;28;20045;-72
2022/08/04 07:58:09;;;;;;;4.00;2.10;;;29.20;87.10;;;;;;5040569;28;20025;-72
2022/08/04 08:00:35;;;;;;;6.15;1.60;;;29.30;85.90;;;;;;5052574;28;20032;-73
2022/08/04 08:03:02;;;;;;;5.00;1.45;;;29.40;85.90;;;;;;5047222;28;20029;-73
2022/08/04 08:05:28;;;;;;;4.07;1.80;;;29.50;79.70;;;;;;5032471;28;20048;-74
2022/08/04 08:07:56;;;;;;;2.28;1.60;;;29.70;80.90;;;;;;5038765;28;20095;-72
2022/08/04 08:13:44;;;;;;;7.07;1.90;;;29.90;79.40;;;;;;5037685;28;20411;-73
2022/08/04 08:16:10;;;;;;;6.35;2.00;;;30.00;79.30;;;;;;5031342;28;20021;-73
2022/08/04 08:18:36;;;;;;;11.00;1.90;;;30.20;79.90;;;;;;5038925;28;20116;-74
2022/08/04 08:21:02;;;;;;;9.48;2.10;;;30.30;80.60;;;;;;5049043;28;20530;-72
2022/08/04 08:23:30;;;;;;;2.50;1.83;;;30.30;82.10;;;;;;5040219;28;20068;-72
2022/08/04 08:25:57;;;;;;;5.28;2.45;;;30.30;87.40;;;;;;5045628;28;20048;-75
2022/08/04 08:28:24;;;;;;;4.22;2.40;;;30.20;95.30;;;;;;5041290;28;20105;-75
2022/08/04 08:30:49;;;;;;;8.73;2.30;;;30.00;94.10;;;;;;5050801;28;20028;-74
2022/08/04 08:33:16;;;;;;;13.05;2.83;;;29.80;95.80;;;;;;5035672;28;20237;-72
2022/08/04 08:35:57;;;;;;;6.28;2.75;;;29.50;97.50;;;;;;5031586;28;20018;-73
2022/08/04 08:38:38;;;;;;;6.65;2.70;;;29.50;98.60;;;;;;5038839;28;20053;-72
2022/08/04 08:41:14;;;;;;;7.68;2.90;;;29.20;99.50;;;;;;5049545;28;20036;-74
2022/08/04 08:44:10;;;;;;;8.98;2.75;;;29.10;99.90;;;;;;5035384;28;20508;-74
2022/08/04 08:46:45;;;;;;;6.55;3.05;;;29.00;99.90;;;;;;5036226;28;20025;-74
2022/08/04 08:49:31;;;;;;;7.70;3.30;;;29.10;98.10;;;;;;5034512;28;20028;-75
2022/08/04 08:52:34;;;;;;;6.85;3.03;;;29.10;99.50;;;;;;5046373;28;20029;-75
2022/08/04 08:55:25;;;;;;;10.00;2.90;;;29.00;98.40;;;;;;5048320;28;20399;-74
2022/08/04 08:58:12;;;;;;;9.70;2.70;;;29.00;96.80;;;;;;5033768;28;20120;-73
2022/08/04 09:00:55;;;;;;;5.38;2.55;;;29.10;94.60;;;;;;5051324;28;20028;-74
2022/08/04 09:03:33;;;;;;;8.45;2.60;;;29.10;94.60;;;;;;5040575;28;20025;-74
2022/08/04 09:06:14;;;;;;;9.95;2.75;;;29.20;94.00;;;;;;5031017;28;20417;-75
2022/08/04 09:09:02;;;;;;;10.68;2.60;;;29.20;95.10;;;;;;5036131;28;20083;-73
2022/08/04 09:11:40;;;;;;;4.38;2.40;;;29.30;92.40;;;;;;5034440;28;20030;-73
2022/08/04 09:14:38;;;;;;;7.97;2.53;;;29.30;93.00;;;;;;5042446;28;20041;-74
2022/08/04 09:17:17;;;;;;;4.70;2.40;;;29.40;94.50;;;;;;5045135;28;20073;-73
2022/08/04 09:19:56;;;;;;;2.83;2.53;;;29.50;94.30;;;;;;5045677;28;20021;-73
2022/08/04 09:22:32;;;;;;;5.15;2.40;;;29.50;93.70;;;;;;5041340;28;20033;-73
2022/08/04 09:25:19;;;;;;;3.10;2.00;;;29.70;91.40;;;;;;5048962;28;20028;-73
2022/08/04 09:27:59;;;;;;;5.57;2.17;;;29.70;91.90;;;;;;5033564;28;20503;-74
2022/08/04 09:31:00;;;;;;;4.32;2.03;;;29.80;90.40;;;;;;5027539;28;20029;-73
2022/08/04 09:33:38;;;;;;;4.93;1.65;;;29.90;87.30;;;;;;5050706;28;20049;-75
2022/08/04 09:36:14;;;;;;;3.10;1.77;;;30.00;83.10;;;;;;5031808;28;20066;-72
2022/08/04 09:38:40;;;;;;;3.67;2.03;;;30.00;83.30;;;;;;5035532;28;20091;-72
2022/08/04 09:41:20;;;;;;;2.03;1.88;;;30.00;86.90;;;;;;5032168;28;20030;-72
2022/08/04 09:44:15;;;;;;;2.10;1.90;;;30.10;84.60;;;;;;5036738;28;20542;-72
2022/08/04 09:47:02;;;;;;;4.82;2.00;;;30.10;84.00;;;;;;5035727;28;20127;-73
2022/08/04 09:49:46;;;;;;;2.10;1.95;;;30.10;83.70;;;;;;5038228;28;20032;-75
2022/08/04 09:52:32;;;;;;;3.78;1.90;;;30.10;85.20;;;;;;5043545;28;20068;-75
2022/08/04 09:55:10;;;;;;;2.42;1.73;;;30.10;84.70;;;;;;5048525;28;20473;-73
2022/08/04 09:57:36;;;;;;;5.60;1.98;;;30.10;85.40;;;;;;5036840;28;20140;-73
2022/08/04 10:00:09;;;;;;;6.13;1.90;;;30.20;86.30;;;;;;5048068;28;20527;-72
2022/08/04 10:02:38;;;;;;;3.88;1.92;;;30.30;85.40;;;;;;5045661;28;20021;-73
2022/08/04 10:05:10;;;;;;;3.55;2.00;;;30.30;86.30;;;;;;5031904;28;20032;-72
2022/08/04 10:08:16;;;;;;;2.45;1.92;;;30.30;83.70;;;;;;5034842;28;20041;-74
2022/08/04 10:11:13;;;;;;;2.67;1.80;;;30.30;85.60;;;;;;5011025;28;20030;-74
2022/08/04 10:14:03;;;;;;;3.08;1.90;;;30.30;84.70;;;;;;5028583;28;20561;-74
2022/08/04 10:16:29;;;;;;;7.45;2.00;;;30.20;85.30;;;;;;5032769;28;20131;-75
2022/08/04 10:18:58;;;;;;;5.60;2.17;;;30.30;83.80;;;;;;5041748;28;20483;-74
2022/08/04 10:21:42;;;;;;;2.55;1.75;;;30.20;83.40;;;;;;5045837;28;20559;-74
2022/08/04 10:24:29;;;;;;;7.15;1.83;;;30.30;83.70;;;;;;5041549;28;20590;-73
2022/08/04 10:27:05;;;;;;;2.70;1.90;;;30.40;82.60;;;;;;5041791;28;20108;-73
2022/08/04 10:29:37;;;;;;;3.38;1.80;;;30.50;81.40;;;;;;5044460;28;20017;-74
2022/08/04 10:32:06;;;;;;;2.80;1.92;;;30.40;78.30;;;;;;5044366;28;20056;-74
2022/08/04 10:34:43;;;;;;;2.30;2.10;;;30.40;79.90;;;;;;5036025;28;20037;-72
2022/08/04 10:37:20;;;;;;;10.82;2.63;;;30.50;81.10;;;;;;5039378;28;20079;-73
2022/08/04 10:42:56;;;;;;;2.20;2.00;;;30.70;80.80;;;;;;5039260;28;20036;-73
2022/08/04 10:45:45;;;;;;;4.80;1.73;;;30.80;80.10;;;;;;5013207;28;20022;-73
2022/08/04 10:48:34;;;;;;;4.18;1.70;;;30.90;80.50;;;;;;5040430;28;20509;-74
2022/08/04 10:51:05;;;;;;;1.95;1.77;;;31.00;78.00;;;;;;5051005;28;20037;-72
2022/08/04 10:53:36;;;;;;;2.35;1.80;;;31.00;76.90;;;;;;5042464;28;20075;-72
2022/08/04 10:56:10;;;;;;;1.60;1.50;;;31.00;76.60;;;;;;5033587;28;20116;-73
2022/08/04 10:58:48;;;;;;;8.60;1.58;;;31.10;77.40;;;;;;5044645;28;20090;-73
2022/08/04 11:01:25;;;;;;;1.80;1.70;;;31.00;76.10;;;;;;5050429;28;20025;-75
2022/08/04 11:04:02;;;;;;;3.20;1.50;;;31.10;77.90;;;;;;5043032;28;20181;-73
2022/08/04 11:06:29;;;;;;;1.80;1.42;;;31.20;75.60;;;;;;5036926;28;20029;-73
2022/08/04 11:08:57;;;;;;;6.28;1.83;;;31.20;77.60;;;;;;5043126;28;20487;-74
2022/08/04 11:11:28;;;;;;;2.92;1.80;;;31.20;78.00;;;;;;5050088;28;20029;-72
2022/08/04 11:14:07;;;;;;;2.08;1.63;;;31.20;78.50;;;;;;5043214;28;20166;-72
2022/08/04 11:16:50;;;;;;;1.73;1.60;;;31.00;76.00;;;;;;5049842;28;20033;-74
2022/08/04 11:19:38;;;;;;;3.88;1.90;;;31.00;76.90;;;;;;5037579;28;20717;-74
2022/08/04 11:22:26;;;;;;;6.97;1.80;;;31.00;78.10;;;;;;5047044;28;20659;-74
2022/08/04 11:25:04;;;;;;;2.85;1.88;;;31.00;79.70;;;;;;5050173;28;20036;-75
2022/08/04 11:28:17;;;;;;;2.47;1.90;;;31.10;77.90;;;;;;5043082;28;20357;-74
2022/08/04 11:31:03;;;;;;;6.60;2.08;;;31.20;80.50;;;;;;5011930;28;20037;-74
2022/08/04 11:33:43;;;;;;;2.33;2.00;;;31.20;77.40;;;;;;5043486;28;20030;-74
2022/08/04 11:36:24;;;;;;;5.70;2.00;;;31.20;79.10;;;;;;5033991;28;20036;-73
2022/08/04 11:39:33;;;;;;;2.20;2.00;;;31.20;78.50;;;;;;5047596;28;20041;-73
2022/08/04 11:42:17;;;;;;;3.60;1.80;;;31.30;78.30;;;;;;5045155;28;20402;-73
2022/08/04 11:44:47;;;;;;;3.22;2.10;;;31.40;78.00;;;;;;5037299;28;20091;-72
2022/08/04 11:47:30;;;;;;;2.03;1.55;;;31.40;78.80;;;;;;5040513;28;20028;-77
2022/08/04 11:50:20;;;;;;;3.03;2.00;;;31.40;76.30;;;;;;5034956;28;20032;-74
2022/08/04 11:52:47;;;;;;;2.60;1.90;;;31.50;78.30;;;;;;5035398;28;20038;-74
2022/08/04 11:55:16;;;;;;;2.05;1.88;;;31.50;78.50;;;;;;5012872;28;20029;-75
2022/08/04 11:57:43;;;;;;;2.33;1.95;;;31.50;77.80;;;;;;5034744;28;20388;-74
2022/08/04 12:00:12;;;;;;;9.70;2.40;;;31.60;78.50;;;;;;5052155;28;20029;-73
2022/08/04 12:02:58;;;;;;;3.42;1.88;;;31.60;81.00;;;;;;5049101;28;20031;-73
2022/08/04 12:05:40;;;;;;;7.28;1.83;;;31.50;78.30;;;;;;5012884;28;20026;-74
2022/08/04 12:08:44;;;;;;;2.42;1.55;;;31.60;78.00;;;;;;5040389;28;20511;-74
2022/08/04 12:11:33;;;;;;;2.22;1.90;;;31.80;79.00;;;;;;5049311;28;20057;-75
2022/08/04 12:14:26;;;;;;;3.88;1.85;;;32.60;77.60;;;;;;5038100;28;20048;-75
2022/08/04 12:17:01;;;;;;;2.20;1.77;;;34.00;76.00;;;;;;5037563;28;20272;-75
2022/08/04 12:19:49;;;;;;;3.97;1.80;;;35.50;72.50;;;;;;5045948;28;20438;-76
2022/08/04 12:22:27;;;;;;;2.97;1.90;;;36.70;71.40;;;;;;5043101;28;20490;-75
2022/08/04 12:24:58;;;;;;;3.80;1.73;;;37.80;70.00;;;;;;5049295;28;20055;-76
2022/08/04 12:27:30;;;;;;;6.32;1.65;;;38.30;69.40;;;;;;5038212;28;20033;-75
2022/08/04 12:29:57;;;;;;;2.08;1.67;;;38.70;69.60;;;;;;5049597;28;20071;-74
2022/08/04 12:32:32;;;;;;;7.68;1.80;;;39.40;68.40;;;;;;5039774;28;20059;-74
2022/08/04 12:35:21;;;;;;;1.95;1.63;;;39.80;66.20;;;;;;5049708;28;20033;-75
2022/08/04 12:38:01;;;;;;;2.25;1.80;;;40.70;66.20;;;;;;5039496;28;20037;-74
2022/08/04 12:40:35;;;;;;;2.92;1.77;;;41.50;67.20;;;;;;5012191;28;20018;-74
2022/08/04 12:43:25;;;;;;;5.50;1.60;;;42.70;63.70;;;;;;5038303;28;20029;-74
2022/08/04 12:45:57;;;;;;;5.18;1.70;;;44.00;62.60;;;;;;5050312;28;20444;-74
2022/08/04 12:48:25;;;;;;;3.20;1.58;;;44.90;62.60;;;;;;5038724;28;20056;-76
2022/08/04 12:50:56;;;;;;;2.33;1.42;;;44.70;60.10;;;;;;5050325;28;20412;-75
2022/08/04 12:53:32;;;;;;;;;;;44.80;60.10;;;;;;5043012;28;20052;-75
2022/08/04 12:55:59;;;;;;;5.35;1.95;;;43.50;61.40;;;;;;5031806;28;19905;-76
2022/08/04 12:58:28;;;;;;;3.22;1.83;;;43.80;62.70;;;;;;5041708;28;20500;-75
2022/08/04 13:01:02;;;;;;;6.68;1.70;;;44.10;62.50;;;;;;5032261;28;20032;-75
2022/08/04 13:03:35;;;;;;;2.80;1.92;;;44.40;61.80;;;;;;5042954;28;20040;-75
2022/08/04 13:06:01;;;;;;;9.40;1.70;;;44.30;60.00;;;;;;5032416;28;20048;-75
2022/08/04 13:08:27;;;;;;;1.75;1.52;;;43.80;59.60;;;;;;5041053;28;20029;-75
2022/08/04 13:10:57;;;;;;;4.28;1.63;;;44.10;61.20;;;;;;5049019;28;20039;-75
2022/08/04 13:13:27;;;;;;;8.07;2.10;;;44.00;61.60;;;;;;5038562;28;20170;-74
2022/08/04 13:16:02;;;;;;;5.50;1.40;;;43.90;60.20;;;;;;5048848;28;20260;-74
2022/08/04 13:18:31;;;;;;;2.75;1.70;;;44.20;60.20;;;;;;5038532;28;20052;-77
2022/08/04 13:21:20;;;;;;;5.78;1.67;;;44.00;60.00;;;;;;5049941;28;20028;-77
2022/08/04 13:24:00;;;;;;;4.25;1.80;;;44.10;60.10;;;;;;5032360;28;20022;-77
2022/08/04 13:26:26;;;;;;;3.92;1.70;;;44.30;59.70;;;;;;5023821;28;20037;-76
2022/08/04 13:28:54;;;;;;;7.35;1.73;;;44.20;58.10;;;;;;5042244;28;20070;-75
2022/08/04 13:31:26;;;;;;;5.78;1.52;;;43.80;58.80;;;;;;5047650;28;20028;-76
2022/08/04 13:34:01;;;;;;;7.45;1.55;;;43.40;58.20;;;;;;5040155;28;20036;-76
2022/08/04 13:36:29;;;;;;;5.78;1.60;;;43.60;59.60;;;;;;5033120;28;20021;-76
2022/08/04 13:38:58;;;;;;;5.32;1.67;;;43.50;58.20;;;;;;5039695;28;20042;-76
2022/08/04 13:41:27;;;;;;;4.90;1.60;;;43.20;59.20;;;;;;5032250;28;20030;-77
2022/08/04 13:43:58;;;;;;;5.35;1.60;;;42.80;58.20;;;;;;5035526;28;20376;-75
2022/08/04 13:46:31;;;;;;;5.35;1.45;;;42.80;60.30;;;;;;5033468;28;20108;-76